Time,TemperatureF,DewpointF,PressureIn,WindDirection,WindDirectionDegrees,WindSpeedMPH,WindSpeedGustMPH,Humidity,HourlyPrecipIn,Conditions,Clouds,dailyrainin,SoftwareType,DateUTC
2013-06-26 00:00:00,67.7,65.0,29.71,SE,145,0.0,0.0,91,0.00,,---,0.00,VWS V14.01,2013-06-26 05:00:00,
2013-06-26 00:30:00,67.8,65.4,29.70,SE,144,0.0,0.0,92,0.00,,---,0.00,VWS V14.01,2013-06-26 05:30:00,
2013-06-26 01:00:00,67.7,65.3,29.70,SE,144,0.0,1.0,92,0.00,,---,0.00,VWS V14.01,2013-06-26 06:00:00,
2013-06-26 01:30:00,67.8,65.4,29.69,SE,144,0.0,2.0,92,0.00,,---,0.00,VWS V14.01,2013-06-26 06:30:00,
2013-06-26 02:00:00,68.1,65.7,29.69,SE,144,0.0,0.0,92,0.00,,---,0.00,VWS V14.01,2013-06-26 07:00:00,
2013-06-26 02:30:00,67.9,65.5,29.68,SE,144,0.0,0.0,92,0.00,,---,0.00,VWS V14.01,2013-06-26 07:30:00,
2013-06-26 03:00:00,67.7,65.6,29.67,SE,144,0.0,0.0,93,0.00,,---,0.00,VWS V14.01,2013-06-26 08:00:00,
2013-06-26 03:30:00,67.3,65.2,29.65,SE,135,0.0,4.0,93,0.00,,---,0.00,VWS V14.01,2013-06-26 08:30:00,
2013-06-26 04:00:00,66.9,65.1,29.66,SE,132,0.0,7.0,94,0.00,,---,0.00,VWS V14.01,2013-06-26 09:00:00,
2013-06-26 04:30:00,65.9,64.1,29.68,SE,142,1.0,9.0,94,0.00,,---,0.00,VWS V14.01,2013-06-26 09:30:00,
2013-06-26 05:00:00,66.1,64.0,29.68,South,170,0.0,7.0,93,0.00,,---,0.00,VWS V14.01,2013-06-26 10:00:00,
2013-06-26 05:30:00,66.6,64.2,29.69,SE,133,0.0,5.0,92,0.00,,---,0.00,VWS V14.01,2013-06-26 10:30:00,
2013-06-26 06:00:00,66.5,63.8,29.67,South,179,5.0,5.0,91,0.00,,---,0.00,VWS V14.01,2013-06-26 11:00:00,
2013-06-26 06:30:00,67.0,64.9,29.66,SSW,196,6.0,13.0,93,0.00,,---,0.00,VWS V14.01,2013-06-26 11:30:00,
2013-06-26 07:00:00,67.4,65.0,29.68,South,190,3.0,12.0,92,0.00,,---,0.00,VWS V14.01,2013-06-26 12:00:00,
2013-06-26 07:30:00,67.5,64.8,29.70,SSE,168,0.0,7.0,91,0.00,,---,0.00,VWS V14.01,2013-06-26 12:30:00,
2013-06-26 08:00:00,67.0,64.9,29.71,SSW,195,0.0,6.0,93,0.02,,---,0.02,VWS V14.01,2013-06-26 13:00:00,
2013-06-26 08:30:00,66.6,64.8,29.72,WNW,290,3.0,8.0,94,0.09,,---,0.09,VWS V14.01,2013-06-26 13:30:00,
2013-06-26 09:00:00,66.5,65.0,29.71,South,188,6.0,9.0,95,0.20,,---,0.20,VWS V14.01,2013-06-26 14:00:00,
2013-06-26 09:30:00,66.8,65.3,29.66,South,188,0.0,7.0,95,0.26,,---,0.28,VWS V14.01,2013-06-26 14:30:00,
2013-06-26 10:00:00,67.5,66.0,29.64,WSW,238,7.0,10.0,95,0.22,,---,0.31,VWS V14.01,2013-06-26 15:00:00,
2013-06-26 10:30:00,68.4,66.6,29.64,South,178,6.0,16.0,94,0.12,,---,0.32,VWS V14.01,2013-06-26 15:30:00,
2013-06-26 11:00:00,71.1,66.7,29.66,SW,215,5.0,17.0,86,0.04,,---,0.32,VWS V14.01,2013-06-26 16:00:00,
2013-06-26 11:30:00,74.7,68.5,29.67,SW,228,5.0,11.0,81,0.01,,---,0.32,VWS V14.01,2013-06-26 16:30:00,
2013-06-26 12:00:00,75.1,68.2,29.67,South,183,0.0,12.0,79,0.00,,---,0.32,VWS V14.01,2013-06-26 17:00:00,
2013-06-26 12:30:00,74.5,67.2,29.67,NNW,327,5.0,12.0,78,0.00,,---,0.32,VWS V14.01,2013-06-26 17:30:00,
2013-06-26 13:00:00,72.3,66.5,29.66,West,275,0.0,8.0,82,0.00,,---,0.32,VWS V14.01,2013-06-26 18:00:00,
2013-06-26 13:30:00,72.1,66.7,29.65,West,275,0.0,3.0,83,0.00,,---,0.32,VWS V14.01,2013-06-26 18:30:00,
2013-06-26 14:00:00,72.7,66.9,29.65,NNW,345,0.0,5.0,82,0.00,,---,0.32,VWS V14.01,2013-06-26 19:00:00,
2013-06-26 14:30:00,74.2,67.6,29.65,NNW,333,3.0,6.0,80,0.00,,---,0.32,VWS V14.01,2013-06-26 19:30:00,
2013-06-26 15:00:00,75.6,69.0,29.65,NNW,334,0.0,4.0,80,0.00,,---,0.32,VWS V14.01,2013-06-26 20:00:00,
2013-06-26 15:30:00,75.1,68.2,29.65,ESE,117,0.0,5.0,79,0.00,,---,0.32,VWS V14.01,2013-06-26 20:30:00,
2013-06-26 16:00:00,76.1,68.8,29.64,ESE,115,0.0,4.0,78,0.00,,---,0.32,VWS V14.01,2013-06-26 21:00:00,
2013-06-26 16:30:00,76.5,68.8,29.65,SE,142,0.0,1.0,77,0.00,,---,0.32,VWS V14.01,2013-06-26 21:30:00,
2013-06-26 17:00:00,75.2,68.2,29.64,SSE,159,0.0,7.0,79,0.00,,---,0.32,VWS V14.01,2013-06-26 22:00:00,
2013-06-26 17:30:00,75.6,68.3,29.63,SE,126,0.0,5.0,78,0.00,,---,0.32,VWS V14.01,2013-06-26 22:30:00,
2013-06-26 18:00:00,75.7,67.6,29.63,ESE,111,0.0,6.0,76,0.00,,---,0.32,VWS V14.01,2013-06-26 23:00:00,
2013-06-26 18:30:00,74.9,67.2,29.60,SE,129,5.0,7.0,77,0.00,,---,0.32,VWS V14.01,2013-06-26 23:30:00,
2013-06-26 19:00:00,74.7,67.0,29.62,ESE,123,0.0,10.0,77,0.00,,---,0.32,VWS V14.01,2013-06-27 00:00:00,
2013-06-26 19:30:00,72.8,66.6,29.65,SSE,159,0.0,0.0,81,0.00,,---,0.32,VWS V14.01,2013-06-27 00:30:00,
2013-06-26 20:00:00,71.7,66.6,29.65,SSE,153,0.0,0.0,84,0.00,,---,0.32,VWS V14.01,2013-06-27 01:00:00,
2013-06-26 20:30:00,72.1,67.0,29.64,SSE,149,0.0,0.0,84,0.00,,---,0.32,VWS V14.01,2013-06-27 01:30:00,
2013-06-26 21:00:00,70.1,65.7,29.66,SSE,149,0.0,0.0,86,0.00,,---,0.32,VWS V14.01,2013-06-27 02:00:00,
2013-06-26 21:30:00,70.0,66.0,29.66,SE,136,0.0,1.0,87,0.00,,---,0.32,VWS V14.01,2013-06-27 02:30:00,
2013-06-26 22:00:00,68.6,65.2,29.66,SE,128,0.0,0.0,89,0.00,,---,0.32,VWS V14.01,2013-06-27 03:00:00,
2013-06-26 22:30:00,67.5,64.5,29.67,SE,128,0.0,0.0,90,0.00,,---,0.32,VWS V14.01,2013-06-27 03:30:00,
2013-06-26 23:00:00,66.5,64.4,29.67,SE,128,0.0,0.0,93,0.00,,---,0.32,VWS V14.01,2013-06-27 04:00:00,
2013-06-26 23:30:00,65.9,64.1,29.68,SE,128,0.0,0.0,94,0.00,,---,0.32,VWS V14.01,2013-06-27 04:30:00,